Surhuisterveen, Netherlands
Current Conditions -  °F | °C
As of 3:35 PM on Monday 20 Oct 2014 (Local Time) from EHLW Reporting Station
Broken Clouds Broken Clouds  
Wind Chill: 59°   Ceiling: 5700
Heat Index: 59°   Visibility: 6mi
Dew Point: 52°   Wind: 14mph
Humidity: 77%   Direction: 260°W
Pressure: 29.91"   Gusts: NA
Location:  53.18°N, 6.17°E
Report Text: EHLW 201335Z AUTO 26012KT 9999 SCT021 SCT025 BKN057 15/11 Q1013 WHT 27013KT 9999 FEW021
Loading
Personal Weather Stations






























Interactive Weather Map
Tropical Storm Tracking
New forecast layout! Learn more

10-Day Weather Forecast

Advertisements
Track Severe Weather on mobile